Time;durP1;ratioP1;P1;durP2;ratioP2;P2;SDS_P1;SDS_P2;PMS_P1;PMS_P2;Temp;Humidity;BMP_temperature;BMP_pressure;BME280_temperature;BME280_humidity;BME280_pressure;Samples;Min_cycle;Max_cycle;Signal;HPM_P1;HPM_P2
2023/09/06 00:02:07;;;;;;;16.55;9.13;;;;;;;;;;8213560;28;20065;-95
2023/09/06 00:06:10;;;;;;;14.43;10.02;;;;;;;;;;8214971;28;20792;-90
2023/09/06 00:10:15;;;;;;;17.05;10.02;;;;;;;;;;8221840;28;20062;-92
2023/09/06 00:14:20;;;;;;;21.05;11.50;;;;;;;;;;8218025;28;20061;-88
2023/09/06 00:18:23;;;;;;;12.73;8.50;;;;;;;;;;8221117;28;20522;-94
2023/09/06 00:22:26;;;;;;;17.40;10.07;;;;;;;;;;8215538;28;20067;-90
2023/09/06 00:26:29;;;;;;;15.82;9.77;;;;;;;;;;8212203;28;20059;-90
2023/09/06 00:30:35;;;;;;;16.38;8.98;;;;;;;;;;8218999;28;20742;-95
2023/09/06 00:34:37;;;;;;;12.70;7.82;;;;;;;;;;8228972;28;20566;-91
2023/09/06 00:38:41;;;;;;;15.80;9.27;;;;;;;;;;8222474;28;20372;-94
2023/09/06 00:42:46;;;;;;;13.48;9.32;;;;;;;;;;8251512;28;20063;-89
2023/09/06 00:46:50;;;;;;;14.27;8.98;;;;;;;;;;8258264;28;20533;-89
2023/09/06 00:50:56;;;;;;;16.10;9.18;;;;;;;;;;8259518;28;20042;-89
2023/09/06 00:55:00;;;;;;;16.55;9.05;;;;;;;;;;8264811;28;20070;-88
2023/09/06 00:59:03;;;;;;;14.25;9.35;;;;;;;;;;8273752;28;20059;-90
2023/09/06 01:03:10;;;;;;;12.85;8.20;;;;;;;;;;8240744;28;20059;-94
2023/09/06 01:07:14;;;;;;;17.55;8.98;;;;;;;;;;8242801;28;20055;-93
2023/09/06 01:11:21;;;;;;;15.48;8.75;;;;;;;;;;8228454;28;20082;-88
2023/09/06 01:15:23;;;;;;;13.43;7.97;;;;;;;;;;8235567;28;20077;-91
2023/09/06 01:19:31;;;;;;;14.48;8.65;;;;;;;;;;8211366;28;20054;-91
2023/09/06 01:23:38;;;;;;;13.75;7.90;;;;;;;;;;8219095;28;20075;-89
2023/09/06 01:27:41;;;;;;;17.58;9.18;;;;;;;;;;8206930;28;20058;-88
2023/09/06 01:31:44;;;;;;;13.65;8.85;;;;;;;;;;8242329;28;20065;-89
2023/09/06 01:35:47;;;;;;;16.80;9.05;;;;;;;;;;8240743;28;20086;-88
2023/09/06 01:39:51;;;;;;;16.90;9.25;;;;;;;;;;8241196;28;20074;-88
2023/09/06 01:43:54;;;;;;;17.92;9.65;;;;;;;;;;8220413;28;20058;-94
2023/09/06 01:47:58;;;;;;;18.83;10.23;;;;;;;;;;8241045;28;20128;-86
2023/09/06 01:52:05;;;;;;;16.25;9.13;;;;;;;;;;8222790;28;20058;-87
2023/09/06 01:56:09;;;;;;;17.98;9.73;;;;;;;;;;8237878;28;20051;-88
2023/09/06 02:00:22;;;;;;;14.73;9.23;;;;;;;;;;8230697;28;20062;-93
2023/09/06 02:04:25;;;;;;;13.25;7.93;;;;;;;;;;8228859;28;20674;-86
2023/09/06 02:08:28;;;;;;;15.50;8.50;;;;;;;;;;8225994;28;20060;-92
2023/09/06 02:12:36;;;;;;;17.10;9.45;;;;;;;;;;8222140;28;20155;-88
2023/09/06 02:16:39;;;;;;;13.77;8.95;;;;;;;;;;8238481;28;20133;-88
2023/09/06 02:20:41;;;;;;;16.92;8.98;;;;;;;;;;8210048;28;20163;-87
2023/09/06 02:24:44;;;;;;;24.75;9.75;;;;;;;;;;8235329;28;20054;-90
2023/09/06 02:28:48;;;;;;;13.23;8.00;;;;;;;;;;8214278;28;20478;-87
2023/09/06 02:32:51;;;;;;;18.27;8.98;;;;;;;;;;8236870;28;20078;-89
2023/09/06 02:36:54;;;;;;;19.60;9.23;;;;;;;;;;8219418;28;20059;-89
2023/09/06 02:40:57;;;;;;;17.25;9.52;;;;;;;;;;8236722;28;20047;-87
2023/09/06 02:45:03;;;;;;;16.85;10.05;;;;;;;;;;8221025;28;20055;-87
2023/09/06 02:49:12;;;;;;;17.80;9.00;;;;;;;;;;8245755;28;20050;-92
2023/09/06 02:53:19;;;;;;;18.50;8.98;;;;;;;;;;8226166;28;20070;-92
2023/09/06 02:57:23;;;;;;;15.77;8.50;;;;;;;;;;8246283;28;20058;-93
2023/09/06 03:01:32;;;;;;;12.13;7.43;;;;;;;;;;8243409;28;20126;-91
2023/09/06 03:05:53;;;;;;;11.48;7.45;;;;;;;;;;8229648;28;20179;-89
2023/09/06 03:09:56;;;;;;;15.70;8.60;;;;;;;;;;8242036;28;20137;-87
2023/09/06 03:13:59;;;;;;;13.50;7.93;;;;;;;;;;8240908;28;20055;-91
2023/09/06 03:18:05;;;;;;;15.40;7.53;;;;;;;;;;8241381;28;20055;-93
2023/09/06 03:22:09;;;;;;;16.65;8.68;;;;;;;;;;8242378;28;20146;-87
2023/09/06 03:26:12;;;;;;;17.40;8.27;;;;;;;;;;8224215;28;20518;-92
2023/09/06 03:30:16;;;;;;;17.42;8.70;;;;;;;;;;8240945;28;20058;-91
2023/09/06 03:34:21;;;;;;;14.38;8.27;;;;;;;;;;8239482;28;20137;-90
2023/09/06 03:38:25;;;;;;;21.60;9.73;;;;;;;;;;8239564;28;20376;-93
2023/09/06 03:42:27;;;;;;;15.52;8.43;;;;;;;;;;8238827;28;20066;-87
2023/09/06 03:46:31;;;;;;;17.75;8.73;;;;;;;;;;8238812;28;20067;-91
2023/09/06 03:50:38;;;;;;;13.63;7.70;;;;;;;;;;8209238;28;20087;-89
2023/09/06 03:54:41;;;;;;;16.83;7.82;;;;;;;;;;8214728;28;20069;-89
2023/09/06 03:58:44;;;;;;;12.68;7.95;;;;;;;;;;8236588;28;20190;-90
2023/09/06 04:02:47;;;;;;;15.23;7.53;;;;;;;;;;8238018;28;20073;-89
2023/09/06 04:06:52;;;;;;;14.82;9.18;;;;;;;;;;8209216;28;20062;-91
2023/09/06 04:10:56;;;;;;;15.60;9.02;;;;;;;;;;8236348;28;20145;-89
2023/09/06 04:15:00;;;;;;;17.05;8.80;;;;;;;;;;8221928;28;20055;-87
2023/09/06 04:19:03;;;;;;;15.20;7.88;;;;;;;;;;8215401;28;20163;-89
2023/09/06 04:23:13;;;;;;;15.55;7.93;;;;;;;;;;8218618;28;20051;-94
2023/09/06 04:27:15;;;;;;;13.80;7.88;;;;;;;;;;8229847;28;20051;-87
2023/09/06 04:31:18;;;;;;;24.92;8.55;;;;;;;;;;8203166;28;20055;-90
2023/09/06 04:35:22;;;;;;;15.43;8.45;;;;;;;;;;8206891;28;20059;-90
2023/09/06 04:39:30;;;;;;;11.73;7.85;;;;;;;;;;8209790;28;20102;-92
2023/09/06 04:43:33;;;;;;;17.25;8.63;;;;;;;;;;8202174;28;20122;-92
2023/09/06 04:47:36;;;;;;;12.07;7.10;;;;;;;;;;8229702;28;20101;-92
2023/09/06 04:51:38;;;;;;;17.77;7.75;;;;;;;;;;8234849;28;20057;-94
2023/09/06 04:55:45;;;;;;;12.65;7.75;;;;;;;;;;8211216;28;20142;-92
2023/09/06 04:59:47;;;;;;;11.98;7.45;;;;;;;;;;8206352;28;20069;-92
2023/09/06 05:03:50;;;;;;;14.50;7.45;;;;;;;;;;8235025;28;20050;-90
2023/09/06 05:07:53;;;;;;;13.48;7.18;;;;;;;;;;8221977;28;20055;-95
2023/09/06 05:11:57;;;;;;;13.68;6.72;;;;;;;;;;8229259;28;20502;-94
2023/09/06 05:16:02;;;;;;;13.00;5.65;;;;;;;;;;8235193;28;20057;-94
2023/09/06 05:20:26;;;;;;;11.90;6.10;;;;;;;;;;8235427;28;20684;-94
2023/09/06 05:24:29;;;;;;;10.32;5.53;;;;;;;;;;8236951;28;20057;-92
2023/09/06 05:28:33;;;;;;;10.27;5.55;;;;;;;;;;8235499;28;20055;-95
2023/09/06 05:32:36;;;;;;;10.75;5.80;;;;;;;;;;8235105;28;20419;-94
2023/09/06 05:36:39;;;;;;;13.40;4.82;;;;;;;;;;8234842;28;20055;-89
2023/09/06 05:40:44;;;;;;;8.45;5.38;;;;;;;;;;8234168;28;20469;-90
2023/09/06 05:44:48;;;;;;;9.75;4.65;;;;;;;;;;8225834;28;20129;-94
2023/09/06 05:48:51;;;;;;;7.28;4.35;;;;;;;;;;8234051;28;20109;-96
2023/09/06 05:52:54;;;;;;;9.68;4.50;;;;;;;;;;8225671;28;20463;-92
2023/09/06 05:56:57;;;;;;;7.72;5.10;;;;;;;;;;8232954;28;20061;-95
2023/09/06 06:01:02;;;;;;;10.93;5.97;;;;;;;;;;8224978;28;20621;-95
2023/09/06 06:05:05;;;;;;;11.27;6.75;;;;;;;;;;8233659;28;20055;-88
2023/09/06 06:09:11;;;;;;;14.43;8.77;;;;;;;;;;8233535;28;20158;-91
2023/09/06 06:13:14;;;;;;;12.40;8.27;;;;;;;;;;8233235;28;20138;-94
2023/09/06 06:17:19;;;;;;;10.90;7.93;;;;;;;;;;8235470;28;20133;-92
2023/09/06 06:21:22;;;;;;;10.95;6.78;;;;;;;;;;8238256;28;20058;-92
2023/09/06 06:25:28;;;;;;;12.90;7.20;;;;;;;;;;8239706;28;20062;-92
2023/09/06 06:29:32;;;;;;;11.25;6.00;;;;;;;;;;8239508;28;20142;-92
2023/09/06 06:33:38;;;;;;;10.85;6.45;;;;;;;;;;8263135;28;20051;-95
2023/09/06 06:37:41;;;;;;;10.27;6.60;;;;;;;;;;8272018;28;20066;-93
2023/09/06 06:41:44;;;;;;;10.10;6.72;;;;;;;;;;8277154;28;20039;-90
2023/09/06 06:45:48;;;;;;;10.80;5.95;;;;;;;;;;8281400;28;20034;-90
2023/09/06 06:49:54;;;;;;;9.40;5.55;;;;;;;;;;8248830;28;20091;-93
2023/09/06 06:53:57;;;;;;;8.05;5.10;;;;;;;;;;8238161;28;20129;-89
2023/09/06 06:58:00;;;;;;;9.13;5.60;;;;;;;;;;8238410;28;20082;-93
2023/09/06 07:02:03;;;;;;;8.15;4.80;;;;;;;;;;8237986;28;20422;-91
2023/09/06 07:06:08;;;;;;;7.50;4.75;;;;;;;;;;8216585;28;20055;-94
2023/09/06 07:10:11;;;;;;;8.65;4.50;;;;;;;;;;8231370;28;20526;-93
2023/09/06 07:14:16;;;;;;;6.82;3.30;;;;;;;;;;8234076;28;20055;-92
2023/09/06 07:18:19;;;;;;;6.20;3.40;;;;;;;;;;8212156;28;20055;-95
2023/09/06 07:22:24;;;;;;;4.78;2.92;;;;;;;;;;8217957;28;20059;-93
2023/09/06 07:26:30;;;;;;;5.95;3.70;;;;;;;;;;8222476;28;20051;-96
2023/09/06 07:30:33;;;;;;;5.90;3.22;;;;;;;;;;8229313;28;20137;-92
2023/09/06 07:34:38;;;;;;;7.35;3.20;;;;;;;;;;8236610;28;20062;-93
2023/09/06 07:38:43;;;;;;;6.07;2.90;;;;;;;;;;8242320;28;20062;-92
2023/09/06 07:42:54;;;;;;;4.47;2.80;;;;;;;;;;8250088;28;20059;-95
2023/09/06 07:46:57;;;;;;;4.25;2.83;;;;;;;;;;8235751;28;20137;-93
2023/09/06 07:51:03;;;;;;;4.05;2.72;;;;;;;;;;8236630;28;20058;-94
2023/09/06 07:55:09;;;;;;;5.28;2.80;;;;;;;;;;8236209;28;20120;-93
2023/09/06 07:59:12;;;;;;;5.40;2.90;;;;;;;;;;8235663;28;20110;-92
2023/09/06 08:03:15;;;;;;;4.35;2.80;;;;;;;;;;8235815;28;20050;-95
2023/09/06 08:07:18;;;;;;;4.88;2.72;;;;;;;;;;8216753;28;20506;-94
2023/09/06 08:11:22;;;;;;;5.32;3.00;;;;;;;;;;8235694;28;20055;-94
2023/09/06 08:15:25;;;;;;;4.00;2.80;;;;;;;;;;8213429;28;20062;-94
2023/09/06 08:19:28;;;;;;;4.30;2.85;;;;;;;;;;8235309;28;20058;-94
2023/09/06 08:23:33;;;;;;;3.90;2.80;;;;;;;;;;8222851;28;20051;-93
2023/09/06 08:27:39;;;;;;;9.25;3.17;;;;;;;;;;8235414;28;20062;-94
2023/09/06 08:31:43;;;;;;;4.15;2.72;;;;;;;;;;8221439;28;20055;-93
2023/09/06 08:35:47;;;;;;;4.40;2.70;;;;;;;;;;8216264;28;20146;-92
2023/09/06 08:39:50;;;;;;;6.07;3.25;;;;;;;;;;8217609;28;20459;-92
2023/09/06 08:43:55;;;;;;;7.32;3.00;;;;;;;;;;8218322;28;20073;-90
2023/09/06 08:47:59;;;;;;;5.15;2.60;;;;;;;;;;8219673;28;20053;-92
2023/09/06 08:52:07;;;;;;;4.85;3.05;;;;;;;;;;8182199;28;20137;-94
2023/09/06 08:56:11;;;;;;;5.72;3.58;;;;;;;;;;8210565;28;20119;-94
2023/09/06 09:00:17;;;;;;;5.90;3.28;;;;;;;;;;8205918;28;20087;-95
2023/09/06 09:04:24;;;;;;;4.70;3.00;;;;;;;;;;8193138;28;20059;-92
2023/09/06 09:08:28;;;;;;;5.22;3.20;;;;;;;;;;8185804;28;20066;-92
2023/09/06 09:12:32;;;;;;;5.28;3.42;;;;;;;;;;8224763;28;20055;-95
2023/09/06 09:16:39;;;;;;;5.95;3.17;;;;;;;;;;8220250;28;21300;-90
2023/09/06 09:20:43;;;;;;;4.40;2.90;;;;;;;;;;8190223;28;20066;-92
2023/09/06 09:24:48;;;;;;;4.82;3.08;;;;;;;;;;8203660;28;20062;-93
2023/09/06 09:28:51;;;;;;;5.25;3.33;;;;;;;;;;8205107;28;20051;-92
2023/09/06 09:33:02;;;;;;;6.70;3.15;;;;;;;;;;8218243;28;20066;-95
2023/09/06 09:37:05;;;;;;;5.50;3.53;;;;;;;;;;8190113;28;20055;-93
2023/09/06 09:41:09;;;;;;;4.78;3.10;;;;;;;;;;8209098;28;20507;-95
2023/09/06 09:45:13;;;;;;;5.25;3.28;;;;;;;;;;8208294;28;20059;-92
2023/09/06 09:49:22;;;;;;;5.43;3.78;;;;;;;;;;8214453;28;20067;-92
2023/09/06 09:53:26;;;;;;;7.38;3.90;;;;;;;;;;8200838;28;20054;-95
2023/09/06 09:57:31;;;;;;;9.20;4.05;;;;;;;;;;8227210;28;20054;-91
2023/09/06 10:01:34;;;;;;;11.05;3.90;;;;;;;;;;8205575;28;20062;-96
2023/09/06 10:05:40;;;;;;;5.05;3.30;;;;;;;;;;8201942;28;20130;-96
2023/09/06 10:09:43;;;;;;;8.30;4.03;;;;;;;;;;8198004;28;20082;-93
2023/09/06 10:14:03;;;;;;;8.77;3.97;;;;;;;;;;8198445;28;20082;-91
2023/09/06 10:18:08;;;;;;;6.63;3.75;;;;;;;;;;8213261;28;20062;-92
2023/09/06 10:22:16;;;;;;;6.15;3.78;;;;;;;;;;8216524;28;20070;-91
2023/09/06 10:26:34;;;;;;;31.45;15.57;;;;;;;;;;8207495;23;20055;-95
2023/09/06 10:30:44;;;;;;;19.95;8.85;;;;;;;;;;8211369;28;20055;-91
2023/09/06 10:34:49;;;;;;;17.17;8.05;;;;;;;;;;8194333;28;20086;-90
2023/09/06 10:39:16;;;;;;;19.15;6.80;;;;;;;;;;8199247;28;20076;-91
2023/09/06 10:43:22;;;;;;;25.42;6.78;;;;;;;;;;8217009;28;20058;-92
2023/09/06 10:47:26;;;;;;;9.27;4.28;;;;;;;;;;8213752;28;20492;-91
2023/09/06 10:51:30;;;;;;;8.93;3.53;;;;;;;;;;8194928;28;20190;-92
2023/09/06 10:56:00;;;;;;;6.03;3.50;;;;;;;;;;8233654;28;20106;-96
2023/09/06 11:05:54;;;;;;;6.95;4.32;;;;;;;;;;8237983;28;20057;-92
2023/09/06 11:09:57;;;;;;;8.70;4.03;;;;;;;;;;8210000;28;20059;-91
2023/09/06 11:14:14;;;;;;;7.90;4.20;;;;;;;;;;8237255;28;20050;-91
2023/09/06 11:18:37;;;;;;;5.22;3.50;;;;;;;;;;8238921;28;20069;-91
2023/09/06 11:28:03;;;;;;;6.32;3.80;;;;;;;;;;8242705;28;20065;-92
2023/09/06 11:32:44;;;;;;;7.50;3.92;;;;;;;;;;8232818;28;20059;-94
2023/09/06 11:41:15;;;;;;;7.57;4.03;;;;;;;;;;8138663;23;20060;-93
2023/09/06 11:45:30;;;;;;;9.70;4.07;;;;;;;;;;8238036;28;20059;-94
2023/09/06 11:49:50;;;;;;;5.65;3.72;;;;;;;;;;8239930;28;20123;-92
2023/09/06 11:54:09;;;;;;;5.88;3.60;;;;;;;;;;8169466;29;20056;-92
2023/09/06 11:58:46;;;;;;;6.82;3.50;;;;;;;;;;8136755;29;20048;-95
2023/09/06 12:08:08;;;;;;;7.03;3.97;;;;;;;;;;8141562;29;20052;-96
2023/09/06 12:12:21;;;;;;;;;;;;;;;;;;;;;
2023/09/06 12:16:36;;;;;;;11.13;4.03;;;;;;;;;;8214151;28;20074;-92
2023/09/06 12:20:40;;;;;;;7.68;3.92;;;;;;;;;;8234798;28;20066;-92
2023/09/06 12:25:04;;;;;;;7.07;4.20;;;;;;;;;;8218748;28;20067;-93
2023/09/06 12:29:07;;;;;;;6.47;3.80;;;;;;;;;;8221293;28;20512;-92
2023/09/06 12:33:13;;;;;;;5.72;3.50;;;;;;;;;;8237330;28;20057;-95
2023/09/06 12:37:17;;;;;;;6.07;3.80;;;;;;;;;;8224285;28;20095;-94
2023/09/06 12:41:24;;;;;;;6.47;3.70;;;;;;;;;;8265502;28;20065;-94
2023/09/06 12:45:29;;;;;;;5.32;3.50;;;;;;;;;;8269519;28;20054;-94
2023/09/06 12:49:32;;;;;;;9.50;4.30;;;;;;;;;;8268317;28;20078;-94
2023/09/06 12:53:35;;;;;;;8.02;3.50;;;;;;;;;;8275414;28;20066;-92
2023/09/06 12:57:40;;;;;;;4.88;3.33;;;;;;;;;;8274147;28;20042;-92
2023/09/06 13:01:43;;;;;;;7.88;3.53;;;;;;;;;;8261317;28;20097;-95
2023/09/06 13:05:48;;;;;;;7.10;3.45;;;;;;;;;;8242339;28;20062;-96
2023/09/06 13:10:20;;;;;;;8.77;3.85;;;;;;;;;;8233250;28;20095;-96
2023/09/06 13:14:30;;;;;;;5.88;3.72;;;;;;;;;;8200535;23;20061;-95
2023/09/06 13:19:06;;;;;;;4.72;3.50;;;;;;;;;;8254462;28;20109;-94
2023/09/06 13:23:17;;;;;;;5.95;3.67;;;;;;;;;;8247342;28;20062;-92
2023/09/06 13:27:30;;;;;;;8.48;3.67;;;;;;;;;;8248619;28;20411;-92
2023/09/06 13:32:18;;;;;;;6.43;3.92;;;;;;;;;;8254909;28;20039;-93
2023/09/06 13:36:39;;;;;;;6.50;3.85;;;;;;;;;;8227820;28;20042;-90
2023/09/06 13:40:42;;;;;;;7.35;4.07;;;;;;;;;;8189402;28;20126;-90
2023/09/06 13:44:47;;;;;;;7.95;3.97;;;;;;;;;;8222128;28;20058;-90
2023/09/06 13:48:54;;;;;;;8.52;4.22;;;;;;;;;;8197392;28;20512;-90
2023/09/06 13:52:57;;;;;;;7.10;3.90;;;;;;;;;;8218650;28;20404;-91
2023/09/06 13:57:04;;;;;;;7.78;4.40;;;;;;;;;;8208730;28;20499;-91
2023/09/06 14:01:15;;;;;;;9.05;3.92;;;;;;;;;;8224371;28;20058;-91
2023/09/06 14:05:22;;;;;;;6.45;4.03;;;;;;;;;;8210354;28;20500;-92
2023/09/06 14:09:25;;;;;;;6.03;3.67;;;;;;;;;;8234165;28;20062;-90
2023/09/06 14:13:54;;;;;;;5.93;3.63;;;;;;;;;;8213740;28;20059;-92
2023/09/06 14:17:59;;;;;;;6.13;3.70;;;;;;;;;;8218570;28;20119;-92
2023/09/06 14:22:12;;;;;;;9.35;3.83;;;;;;;;;;8227510;28;20491;-92
2023/09/06 14:26:21;;;;;;;6.82;3.97;;;;;;;;;;8213901;28;20134;-91
2023/09/06 14:30:30;;;;;;;8.43;3.97;;;;;;;;;;8208535;28;20067;-92
2023/09/06 14:35:13;;;;;;;7.18;3.88;;;;;;;;;;8226814;28;20054;-92
2023/09/06 14:39:38;;;;;;;8.25;3.80;;;;;;;;;;8198276;28;20055;-91
2023/09/06 14:48:14;;;;;;;10.38;4.05;;;;;;;;;;8258064;28;20070;-96
2023/09/06 14:52:30;;;;;;;11.07;4.43;;;;;;;;;;8250004;28;20074;-93
2023/09/06 14:56:35;;;;;;;5.90;3.70;;;;;;;;;;8241515;28;20054;-96
2023/09/06 15:00:40;;;;;;;7.93;4.32;;;;;;;;;;8225654;28;20043;-91
2023/09/06 15:04:45;;;;;;;6.95;3.97;;;;;;;;;;8252448;28;20059;-93
2023/09/06 15:08:55;;;;;;;7.78;3.95;;;;;;;;;;8236907;28;20055;-95
2023/09/06 15:13:03;;;;;;;7.13;3.80;;;;;;;;;;8244919;28;20050;-91
2023/09/06 15:17:19;;;;;;;6.78;4.20;;;;;;;;;;8224401;28;20531;-95
2023/09/06 15:21:29;;;;;;;6.30;4.07;;;;;;;;;;8220482;28;20055;-91
2023/09/06 15:25:34;;;;;;;7.10;4.68;;;;;;;;;;8244736;28;20062;-96
2023/09/06 15:29:43;;;;;;;6.35;4.30;;;;;;;;;;8230169;28;20069;-92
2023/09/06 15:33:48;;;;;;;8.30;4.55;;;;;;;;;;8243254;28;20059;-96
2023/09/06 15:38:31;;;;;;;6.90;4.15;;;;;;;;;;8246723;28;20130;-96
2023/09/06 15:42:35;;;;;;;7.38;4.25;;;;;;;;;;8236669;28;20059;-90
2023/09/06 15:51:00;;;;;;;6.57;3.95;;;;;;;;;;8235267;28;20513;-91
2023/09/06 15:55:22;;;;;;;6.65;4.25;;;;;;;;;;8236987;28;20086;-90
2023/09/06 16:04:01;;;;;;;8.32;4.22;;;;;;;;;;8245703;28;20051;-92
2023/09/06 16:08:11;;;;;;;7.28;4.20;;;;;;;;;;8248542;28;20057;-93
2023/09/06 16:12:15;;;;;;;7.82;4.15;;;;;;;;;;8240656;28;20105;-91
2023/09/06 16:16:24;;;;;;;6.93;3.65;;;;;;;;;;8234493;28;20055;-90
2023/09/06 16:25:03;;;;;;;8.05;4.13;;;;;;;;;;8245845;28;20077;-91
2023/09/06 16:29:13;;;;;;;8.35;4.70;;;;;;;;;;8219145;28;20146;-91
2023/09/06 16:33:21;;;;;;;8.18;4.78;;;;;;;;;;8195862;28;20070;-92
2023/09/06 16:37:33;;;;;;;7.22;4.53;;;;;;;;;;8238629;28;20116;-92
2023/09/06 16:41:45;;;;;;;9.57;4.50;;;;;;;;;;8287925;23;20542;-92
2023/09/06 16:45:49;;;;;;;9.45;4.80;;;;;;;;;;8231758;28;20086;-91
2023/09/06 16:54:37;;;;;;;9.15;4.88;;;;;;;;;;8228028;28;20059;-93
2023/09/06 16:58:42;;;;;;;10.00;5.68;;;;;;;;;;8225522;28;20055;-90
2023/09/06 17:02:53;;;;;;;7.13;4.78;;;;;;;;;;8238991;28;20062;-93
2023/09/06 17:07:07;;;;;;;9.10;5.38;;;;;;;;;;8239905;28;20415;-90
2023/09/06 17:11:15;;;;;;;8.77;5.68;;;;;;;;;;8240961;28;20051;-93
2023/09/06 17:15:33;;;;;;;10.30;6.30;;;;;;;;;;8212179;28;20087;-91
2023/09/06 17:19:39;;;;;;;11.68;7.50;;;;;;;;;;8246658;28;20121;-91
2023/09/06 17:23:55;;;;;;;16.55;10.38;;;;;;;;;;8207569;28;20051;-91
2023/09/06 17:28:51;;;;;;;13.75;6.70;;;;;;;;;;8247587;28;20118;-93
2023/09/06 17:37:38;;;;;;;12.73;8.50;;;;;;;;;;8207340;28;20063;-95
2023/09/06 17:41:45;;;;;;;15.35;9.98;;;;;;;;;;8227800;28;20066;-94
2023/09/06 17:45:55;;;;;;;15.73;6.85;;;;;;;;;;8226098;28;20084;-93
2023/09/06 17:49:59;;;;;;;9.85;6.65;;;;;;;;;;8242135;28;20054;-89
2023/09/06 17:54:04;;;;;;;11.38;6.55;;;;;;;;;;8224737;28;20061;-93
2023/09/06 17:58:17;;;;;;;14.07;7.38;;;;;;;;;;8236089;28;20494;-92
2023/09/06 18:02:26;;;;;;;;;;;;;;;;;;8237554;23;20089;-89
2023/09/06 18:06:45;;;;;;;16.35;7.30;;;;;;;;;;8235192;28;19922;-96
2023/09/06 18:15:39;;;;;;;14.48;8.40;;;;;;;;;;8158894;28;20053;-89
2023/09/06 18:24:22;;;;;;;20.23;9.13;;;;;;;;;;8156240;28;20515;-89
2023/09/06 18:28:32;;;;;;;26.10;9.70;;;;;;;;;;8238393;28;20055;-96
2023/09/06 18:32:43;;;;;;;18.70;8.43;;;;;;;;;;8229606;28;20058;-89
2023/09/06 18:36:53;;;;;;;14.43;8.45;;;;;;;;;;8244720;28;20408;-90
2023/09/06 18:40:59;;;;;;;19.38;9.05;;;;;;;;;;8234555;28;20555;-90
2023/09/06 18:45:24;;;;;;;27.42;13.63;;;;;;;;;;8227353;28;20081;-92
2023/09/06 18:49:36;;;;;;;16.80;8.23;;;;;;;;;;8243781;28;20059;-92
2023/09/06 18:53:53;;;;;;;17.08;8.77;;;;;;;;;;8211993;28;20527;-94
2023/09/06 18:58:04;;;;;;;16.97;10.27;;;;;;;;;;8245822;28;20053;-91
2023/09/06 19:02:09;;;;;;;15.90;8.60;;;;;;;;;;8226367;28;20114;-90
2023/09/06 19:06:14;;;;;;;16.33;9.85;;;;;;;;;;8232765;28;20483;-90
2023/09/06 19:15:46;;;;;;;16.50;9.73;;;;;;;;;;8221495;28;20062;-94
2023/09/06 19:19:50;;;;;;;16.20;9.50;;;;;;;;;;8239644;28;20047;-92
2023/09/06 19:23:58;;;;;;;11.32;8.18;;;;;;;;;;8238002;28;20159;-95
2023/09/06 19:28:06;;;;;;;33.00;20.75;;;;;;;;;;8243952;28;20051;-90
2023/09/06 19:32:13;;;;;;;32.47;18.25;;;;;;;;;;8178626;28;20512;-90
2023/09/06 19:36:20;;;;;;;21.02;11.82;;;;;;;;;;8214262;28;20054;-92
2023/09/06 19:40:28;;;;;;;13.65;8.68;;;;;;;;;;8209512;28;20066;-93
2023/09/06 19:44:34;;;;;;;12.80;8.20;;;;;;;;;;8236079;28;20051;-89
2023/09/06 19:53:14;;;;;;;14.02;9.35;;;;;;;;;;8228602;28;20054;-90
2023/09/06 19:57:18;;;;;;;16.02;8.45;;;;;;;;;;8243130;28;20462;-92
2023/09/06 20:01:26;;;;;;;12.95;8.35;;;;;;;;;;8226907;28;20071;-91
2023/09/06 20:05:33;;;;;;;12.38;8.77;;;;;;;;;;8268431;28;20082;-89
2023/09/06 20:09:38;;;;;;;11.18;7.85;;;;;;;;;;8261048;28;20038;-89
2023/09/06 20:13:42;;;;;;;13.20;8.05;;;;;;;;;;8266072;28;20063;-90
2023/09/06 20:17:47;;;;;;;15.68;9.43;;;;;;;;;;8263121;28;20058;-91
2023/09/06 20:21:58;;;;;;;19.30;10.55;;;;;;;;;;8206005;29;20066;-90
2023/09/06 20:26:02;;;;;;;16.08;10.30;;;;;;;;;;8198908;29;20492;-91
2023/09/06 20:30:11;;;;;;;15.25;8.93;;;;;;;;;;8224497;28;20458;-93
2023/09/06 20:34:16;;;;;;;17.05;9.05;;;;;;;;;;8252007;28;20587;-91
2023/09/06 20:38:21;;;;;;;11.93;7.80;;;;;;;;;;8205213;28;20059;-90
2023/09/06 20:42:26;;;;;;;15.80;9.20;;;;;;;;;;8233964;28;20113;-94
2023/09/06 20:46:32;;;;;;;13.70;9.38;;;;;;;;;;8199659;28;20145;-91
2023/09/06 20:50:36;;;;;;;13.30;8.57;;;;;;;;;;8202686;28;20477;-91
2023/09/06 20:54:43;;;;;;;13.00;8.32;;;;;;;;;;8228359;28;20140;-89
2023/09/06 20:58:48;;;;;;;13.93;8.57;;;;;;;;;;8229448;28;20133;-94
2023/09/06 21:02:51;;;;;;;18.92;9.63;;;;;;;;;;8235391;28;20059;-89
2023/09/06 21:06:54;;;;;;;18.95;9.70;;;;;;;;;;8235047;28;20419;-93
2023/09/06 21:10:58;;;;;;;17.15;9.80;;;;;;;;;;8234633;28;20415;-90
2023/09/06 21:15:01;;;;;;;16.75;10.82;;;;;;;;;;8232824;28;20063;-95
2023/09/06 21:19:04;;;;;;;17.27;10.52;;;;;;;;;;8217494;28;20051;-93
2023/09/06 21:23:08;;;;;;;15.00;9.23;;;;;;;;;;8217681;28;20074;-91
2023/09/06 21:27:12;;;;;;;15.85;9.73;;;;;;;;;;8234103;28;20051;-94
2023/09/06 21:31:15;;;;;;;18.50;10.73;;;;;;;;;;8217368;28;20560;-89
2023/09/06 21:35:18;;;;;;;14.70;10.68;;;;;;;;;;8211623;28;20066;-93
2023/09/06 21:39:21;;;;;;;21.17;11.57;;;;;;;;;;8233621;28;20101;-89
2023/09/06 21:43:25;;;;;;;22.52;10.77;;;;;;;;;;8233974;28;20081;-94
2023/09/06 21:47:29;;;;;;;20.45;11.35;;;;;;;;;;8229704;28;20047;-93
2023/09/06 21:51:32;;;;;;;20.08;12.38;;;;;;;;;;8207118;28;20681;-91
2023/09/06 21:55:35;;;;;;;18.52;10.30;;;;;;;;;;8221684;28;20051;-92
2023/09/06 21:59:39;;;;;;;17.73;11.23;;;;;;;;;;8220215;28;20460;-89
2023/09/06 22:03:41;;;;;;;16.05;10.10;;;;;;;;;;8233111;28;20695;-94
2023/09/06 22:07:44;;;;;;;15.43;9.65;;;;;;;;;;8211986;28;20117;-91
2023/09/06 22:11:47;;;;;;;16.65;9.77;;;;;;;;;;8233488;28;20074;-90
2023/09/06 22:15:52;;;;;;;17.48;10.35;;;;;;;;;;8216440;28;20495;-90
2023/09/06 22:19:55;;;;;;;17.48;11.25;;;;;;;;;;8232975;28;20464;-90
2023/09/06 22:23:57;;;;;;;15.90;10.60;;;;;;;;;;8209591;28;20054;-91
2023/09/06 22:28:04;;;;;;;21.40;11.93;;;;;;;;;;8199538;28;20078;-90
2023/09/06 22:32:08;;;;;;;18.98;11.43;;;;;;;;;;8225218;28;20130;-88
2023/09/06 22:36:11;;;;;;;17.92;11.10;;;;;;;;;;8226282;28;20051;-91
2023/09/06 22:40:14;;;;;;;20.23;11.57;;;;;;;;;;8210553;28;20069;-88
2023/09/06 22:44:17;;;;;;;18.17;11.32;;;;;;;;;;8210268;28;20121;-90
2023/09/06 22:48:22;;;;;;;18.15;11.18;;;;;;;;;;8232367;28;20058;-94
2023/09/06 22:52:25;;;;;;;18.48;11.20;;;;;;;;;;8232100;28;20051;-90
2023/09/06 22:56:28;;;;;;;23.45;12.18;;;;;;;;;;8232459;28;20141;-93
2023/09/06 23:00:35;;;;;;;19.52;11.48;;;;;;;;;;8231488;28;20071;-91
2023/09/06 23:04:40;;;;;;;20.08;12.60;;;;;;;;;;8233486;28;20480;-89
2023/09/06 23:08:44;;;;;;;23.90;12.85;;;;;;;;;;8237276;28;20053;-92
2023/09/06 23:12:47;;;;;;;27.48;12.80;;;;;;;;;;8232929;28;20055;-92
2023/09/06 23:16:50;;;;;;;22.50;12.40;;;;;;;;;;8216348;28;20086;-88
2023/09/06 23:20:57;;;;;;;25.70;13.95;;;;;;;;;;8221194;28;20523;-93
2023/09/06 23:25:01;;;;;;;21.60;12.30;;;;;;;;;;8237315;28;20661;-89
2023/09/06 23:29:07;;;;;;;21.20;11.93;;;;;;;;;;8218827;28;20475;-92
2023/09/06 23:33:20;;;;;;;21.95;11.63;;;;;;;;;;8234836;28;20054;-91
2023/09/06 23:37:28;;;;;;;22.23;11.68;;;;;;;;;;8220436;28;20058;-89
2023/09/06 23:41:31;;;;;;;23.27;12.82;;;;;;;;;;8204962;28;20058;-89
2023/09/06 23:45:45;;;;;;;23.20;12.48;;;;;;;;;;8218922;28;20054;-90
2023/09/06 23:49:48;;;;;;;18.42;11.65;;;;;;;;;;8212134;28;20063;-95
2023/09/06 23:53:54;;;;;;;21.00;12.35;;;;;;;;;;8230611;28;20057;-93
2023/09/06 23:57:58;;;;;;;19.08;11.75;;;;;;;;;;8210155;28;20069;-94
